createdAt,value
2019-02-15T00:02:29.491Z,22.90
2019-02-15T00:07:30.876Z,22.80
2019-02-15T00:12:32.253Z,22.90
2019-02-15T00:17:50.710Z,22.90
2019-02-15T00:22:52.094Z,22.80
2019-02-15T00:27:53.567Z,22.80
2019-02-15T00:32:55.949Z,22.80
2019-02-15T00:37:57.383Z,22.80
2019-02-15T00:42:58.778Z,22.80
2019-02-15T00:48:02.042Z,22.70
2019-02-15T00:53:08.203Z,22.70
2019-02-15T00:58:11.538Z,22.70
2019-02-15T01:03:17.511Z,22.70
2019-02-15T01:08:20.896Z,22.60
2019-02-15T01:13:30.735Z,22.60
2019-02-15T01:18:25.634Z,22.60
2019-02-15T01:23:27.105Z,22.60
2019-02-15T01:28:30.397Z,22.60
2019-02-15T01:33:42.437Z,22.60
2019-02-15T01:38:57.819Z,22.60
2019-02-15T01:44:01.211Z,22.60
2019-02-15T01:49:02.581Z,22.60
2019-02-15T01:54:03.948Z,22.60
2019-02-15T01:59:05.334Z,22.50
2019-02-15T02:04:07.853Z,22.50
2019-02-15T02:09:09.143Z,22.50
2019-02-15T02:14:10.589Z,22.50
2019-02-15T02:19:11.976Z,22.50
2019-02-15T02:24:13.366Z,22.50
2019-02-15T02:29:15.784Z,22.50
2019-02-15T02:34:17.191Z,22.40
2019-02-15T02:39:18.878Z,22.50
2019-02-15T02:44:20.230Z,22.40
2019-02-15T02:49:21.655Z,22.40
2019-02-15T02:54:23.062Z,22.40
2019-02-15T02:59:24.452Z,22.40
2019-02-15T03:04:25.784Z,22.40
2019-02-15T03:09:27.189Z,22.40
2019-02-15T03:14:28.510Z,22.40
2019-02-15T03:19:29.929Z,22.40
2019-02-15T03:24:31.347Z,22.40
2019-02-15T03:29:32.723Z,22.40
2019-02-15T03:34:36.207Z,22.40
2019-02-15T03:39:41.997Z,22.40
2019-02-15T03:44:43.377Z,22.40
2019-02-15T03:49:45.761Z,22.30
2019-02-15T03:54:47.120Z,22.30
2019-02-15T03:59:48.506Z,22.30
2019-02-15T04:04:49.939Z,22.10
2019-02-15T04:09:51.321Z,22.30
2019-02-15T04:14:52.664Z,22.30
2019-02-15T04:19:54.068Z,22.20
2019-02-15T04:24:55.520Z,22.20
2019-02-15T04:29:56.862Z,22.30
2019-02-15T04:34:58.250Z,22.30
2019-02-15T04:39:59.586Z,22.20
2019-02-15T04:45:00.967Z,22.30
2019-02-15T04:50:03.442Z,22.20
2019-02-15T04:55:05.746Z,22.20
2019-02-15T05:00:08.308Z,22.20
2019-02-15T05:05:09.686Z,22.20
2019-02-15T05:10:11.201Z,22.10
2019-02-15T05:15:12.524Z,22.10
2019-02-15T05:20:13.928Z,22.10
2019-02-15T05:25:15.238Z,22.10
2019-02-15T05:30:16.648Z,22.10
2019-02-15T05:35:18.080Z,22.10
2019-02-15T05:40:19.462Z,22.10
2019-02-15T05:45:20.803Z,22.10
2019-02-15T05:50:22.178Z,22.10
2019-02-15T05:55:23.541Z,22.00
2019-02-15T06:00:24.930Z,22.10
2019-02-15T06:05:26.351Z,22.10
2019-02-15T06:10:27.754Z,22.10
2019-02-15T06:15:29.093Z,22.00
2019-02-15T06:20:30.484Z,22.10
2019-02-15T06:25:31.817Z,22.00
2019-02-15T06:30:33.205Z,22.00
2019-02-15T06:35:34.549Z,22.00
2019-02-15T06:40:35.940Z,22.00
2019-02-15T06:45:37.275Z,22.00
2019-02-15T06:50:38.675Z,22.00
2019-02-15T06:55:40.098Z,22.00
2019-02-15T07:00:47.157Z,22.00
2019-02-15T07:05:48.625Z,21.90
2019-02-15T07:10:50.067Z,22.00
2019-02-15T07:15:51.398Z,22.00
2019-02-15T07:20:52.755Z,22.00
2019-02-15T07:25:54.155Z,22.00
2019-02-15T07:30:55.597Z,22.00
2019-02-15T07:35:56.970Z,22.00
2019-02-15T07:40:58.346Z,22.00
2019-02-15T07:46:00.730Z,22.00
2019-02-15T07:51:09.353Z,22.00
2019-02-15T07:56:06.367Z,22.00
2019-02-15T08:01:07.812Z,22.00
2019-02-15T08:06:09.230Z,22.00
2019-02-15T08:11:10.630Z,22.10
2019-02-15T08:16:11.994Z,22.10
2019-02-15T08:21:13.426Z,22.10
2019-02-15T08:26:14.828Z,22.20
2019-02-15T08:31:16.270Z,22.20
2019-02-15T08:36:17.629Z,22.30
2019-02-15T08:41:19.009Z,22.20
2019-02-15T08:46:20.473Z,22.30
2019-02-15T08:51:21.843Z,22.30
2019-02-15T08:56:23.174Z,22.30
2019-02-15T09:01:24.559Z,22.40
2019-02-15T09:06:26.022Z,22.50
2019-02-15T09:11:27.450Z,22.60
2019-02-15T09:16:28.838Z,22.60
2019-02-15T09:21:31.269Z,22.70
2019-02-15T09:26:32.588Z,22.80
2019-02-15T09:31:35.003Z,22.90
2019-02-15T09:36:36.347Z,22.90
2019-02-15T09:41:37.746Z,23.00
2019-02-15T09:46:40.118Z,23.10
2019-02-15T09:51:41.505Z,23.20
2019-02-15T09:56:43.899Z,23.30
2019-02-15T10:01:45.321Z,23.30
2019-02-15T10:06:46.713Z,23.40
2019-02-15T10:11:48.178Z,23.50
2019-02-15T10:16:49.653Z,23.60
2019-02-15T10:21:51.085Z,23.60
2019-02-15T10:26:52.459Z,23.80
2019-02-15T10:31:54.874Z,23.80
2019-02-15T10:36:56.310Z,23.80
2019-02-15T10:41:57.699Z,23.90
2019-02-15T10:46:59.127Z,23.90
2019-02-15T10:52:00.529Z,24.00
2019-02-15T10:57:02.001Z,24.00
2019-02-15T11:02:03.377Z,24.10
2019-02-15T11:07:04.831Z,24.20
2019-02-15T11:12:06.281Z,24.20
2019-02-15T11:17:07.642Z,24.20
2019-02-15T11:22:09.215Z,24.20
2019-02-15T11:27:10.560Z,24.30
2019-02-15T11:32:11.956Z,24.30
2019-02-15T11:37:13.378Z,24.40
2019-02-15T11:42:15.902Z,24.40
2019-02-15T11:47:17.240Z,24.50
2019-02-15T11:52:18.632Z,24.50
2019-02-15T11:57:19.970Z,24.50
2019-02-15T12:02:21.381Z,24.60
2019-02-15T12:07:22.716Z,24.60
2019-02-15T12:12:24.330Z,24.60
2019-02-15T12:17:25.990Z,24.60
2019-02-15T12:22:27.414Z,24.60
2019-02-15T12:27:28.798Z,24.60
2019-02-15T12:32:30.145Z,24.60
2019-02-15T12:37:31.599Z,24.60
2019-02-15T12:42:33.109Z,24.60
2019-02-15T12:47:34.527Z,24.60
2019-02-15T12:52:35.924Z,24.60
2019-02-15T12:57:37.362Z,24.60
2019-02-15T13:02:38.783Z,24.60
2019-02-15T13:07:40.196Z,24.60
2019-02-15T13:12:41.692Z,24.50
2019-02-15T13:17:44.172Z,24.50
2019-02-15T13:22:45.510Z,24.50
2019-02-15T13:27:46.911Z,24.50
2019-02-15T13:32:48.255Z,24.50
2019-02-15T13:37:49.634Z,24.50
2019-02-15T13:42:50.993Z,24.40
2019-02-15T13:47:52.367Z,24.40
2019-02-15T13:52:53.795Z,24.40
2019-02-15T13:57:55.213Z,24.30
2019-02-15T14:02:56.695Z,24.30
2019-02-15T14:07:58.130Z,24.30
2019-02-15T14:12:59.560Z,24.30
2019-02-15T14:18:00.948Z,24.20
2019-02-15T14:23:02.407Z,24.20
2019-02-15T14:28:03.765Z,24.30
2019-02-15T14:33:05.243Z,24.30
2019-02-15T14:38:06.596Z,24.40
2019-02-15T14:43:08.029Z,24.40
2019-02-15T14:48:09.426Z,24.40
2019-02-15T14:53:10.821Z,24.50
2019-02-15T14:58:12.260Z,24.50
2019-02-15T15:03:13.611Z,24.60
2019-02-15T15:08:15.095Z,24.60
2019-02-15T15:13:16.546Z,24.60
2019-02-15T15:18:17.932Z,24.60
2019-02-15T15:23:19.276Z,24.70
2019-02-15T15:28:20.664Z,24.70
2019-02-15T15:33:22.002Z,24.70
2019-02-15T15:38:23.484Z,24.70
2019-02-15T15:43:24.837Z,24.70
2019-02-15T15:48:26.313Z,24.60
2019-02-15T15:53:27.663Z,24.70
2019-02-15T15:58:29.101Z,24.70
2019-02-15T16:03:30.493Z,24.60
2019-02-15T16:08:31.885Z,24.70
2019-02-15T16:13:33.220Z,24.70
2019-02-15T16:18:35.723Z,24.60
2019-02-15T16:23:37.074Z,24.70
2019-02-15T16:28:38.411Z,24.70
2019-02-15T16:33:39.803Z,24.70
2019-02-15T16:38:41.211Z,24.60
2019-02-15T16:43:42.666Z,24.60
2019-02-15T16:48:44.094Z,24.50
2019-02-15T16:53:45.531Z,24.50
2019-02-15T16:58:47.031Z,24.50
2019-02-15T17:03:48.562Z,24.50
2019-02-15T17:08:49.984Z,24.50
2019-02-15T17:13:51.358Z,24.30
2019-02-15T17:18:52.696Z,24.20
2019-02-15T17:23:54.096Z,24.10
2019-02-15T17:28:55.519Z,24.00
2019-02-15T17:33:56.917Z,24.00
2019-02-15T17:38:58.242Z,24.00
2019-02-15T17:43:59.647Z,23.90
2019-02-15T17:49:02.913Z,23.90
2019-02-15T17:54:04.309Z,23.80
2019-02-15T17:59:06.694Z,23.80
2019-02-15T18:04:08.065Z,23.80
2019-02-15T18:09:09.411Z,23.70
2019-02-15T18:14:10.886Z,23.70
2019-02-15T18:19:12.248Z,23.70
2019-02-15T18:24:13.623Z,23.70
2019-02-15T18:29:14.957Z,23.60
2019-02-15T18:34:16.355Z,23.60
2019-02-15T18:39:17.726Z,23.60
2019-02-15T18:44:19.150Z,23.60
2019-02-15T18:49:20.587Z,23.50
2019-02-15T18:54:22.017Z,23.50
2019-02-15T18:59:23.378Z,23.50
2019-02-15T19:04:24.710Z,23.50
2019-02-15T19:09:26.116Z,23.40
2019-02-15T19:14:27.538Z,23.40
2019-02-15T19:19:29.490Z,23.30
2019-02-15T19:24:30.883Z,23.30
2019-02-15T19:29:32.282Z,23.40
2019-02-15T19:34:33.711Z,23.30
2019-02-15T19:39:35.110Z,23.30
2019-02-15T19:44:36.447Z,23.30
2019-02-15T19:49:39.063Z,23.30
2019-02-15T19:54:40.643Z,23.30
2019-02-15T19:59:42.106Z,23.30
2019-02-15T20:04:43.489Z,23.30
2019-02-15T20:09:45.799Z,23.30
2019-02-15T20:14:47.217Z,23.20
2019-02-15T20:19:50.871Z,23.20
2019-02-15T20:24:51.991Z,23.20
2019-02-15T20:29:53.326Z,23.20
2019-02-15T20:34:54.717Z,23.20
2019-02-15T20:39:56.059Z,23.20
2019-02-15T20:44:57.453Z,23.20
2019-02-15T20:49:59.859Z,23.20
2019-02-15T20:55:01.375Z,23.20
2019-02-15T21:00:08.181Z,23.10
2019-02-15T21:05:09.636Z,23.10
2019-02-15T21:10:12.617Z,23.10
2019-02-15T21:15:14.240Z,23.10
2019-02-15T21:20:15.601Z,23.10
2019-02-15T21:25:16.959Z,23.10
2019-02-15T21:30:18.922Z,23.10
2019-02-15T21:35:20.303Z,23.10
2019-02-15T21:40:21.639Z,23.10
2019-02-15T21:45:23.068Z,23.10
2019-02-15T21:50:24.466Z,23.00
2019-02-15T21:55:25.876Z,23.00
2019-02-15T22:00:27.600Z,23.00
2019-02-15T22:05:30.130Z,22.90
2019-02-15T22:10:31.458Z,22.90
2019-02-15T22:15:32.850Z,22.90
2019-02-15T22:20:34.229Z,22.90
2019-02-15T22:25:35.722Z,22.90
2019-02-15T22:30:37.122Z,22.90
2019-02-15T22:35:38.515Z,22.90
2019-02-15T22:40:40.911Z,22.80
2019-02-15T22:45:42.341Z,22.80
2019-02-15T22:50:43.726Z,22.80
2019-02-15T22:55:45.090Z,22.70
2019-02-15T23:00:55.956Z,22.80
2019-02-15T23:05:57.423Z,22.80
2019-02-15T23:10:58.826Z,22.80
2019-02-15T23:16:00.153Z,22.70
2019-02-15T23:21:01.551Z,22.70
2019-02-15T23:26:03.931Z,22.70
2019-02-15T23:31:06.671Z,22.70
2019-02-15T23:36:08.062Z,22.70
2019-02-15T23:41:09.456Z,22.70
2019-02-15T23:46:10.792Z,22.60
2019-02-15T23:51:12.222Z,22.70
2019-02-15T23:56:13.652Z,22.60
